sensor_id;sensor_type;location;lat;lon;timestamp;pressure;altitude;pressure_sealevel;temperature;humidity
44453;BME280;30155;52.164;21.236;2022-12-20T00:04:10;101361.91;;;-2.27;79.23
44453;BME280;30155;52.164;21.236;2022-12-20T00:09:05;101350.18;;;-2.25;79.33
44453;BME280;30155;52.164;21.236;2022-12-20T00:13:57;101337.81;;;-2.21;79.58
44453;BME280;30155;52.164;21.236;2022-12-20T00:18:54;101343.50;;;-2.13;79.78
44453;BME280;30155;52.164;21.236;2022-12-20T00:23:49;101334.56;;;-2.08;79.91
44453;BME280;30155;52.164;21.236;2022-12-20T00:28:42;101327.03;;;-2.06;79.90
44453;BME280;30155;52.164;21.236;2022-12-20T00:33:35;101310.84;;;-2.02;80.03
44453;BME280;30155;52.164;21.236;2022-12-20T00:38:27;101310.90;;;-1.95;80.26
44453;BME280;30155;52.164;21.236;2022-12-20T00:43:19;101303.66;;;-1.96;80.21
44453;BME280;30155;52.164;21.236;2022-12-20T00:48:10;101301.83;;;-1.92;80.49
44453;BME280;30155;52.164;21.236;2022-12-20T00:53:02;101298.22;;;-1.83;80.73
44453;BME280;30155;52.164;21.236;2022-12-20T00:57:53;101296.88;;;-1.73;80.86
44453;BME280;30155;52.164;21.236;2022-12-20T01:02:44;101294.33;;;-1.73;80.77
44453;BME280;30155;52.164;21.236;2022-12-20T01:07:35;101294.29;;;-1.68;80.98
44453;BME280;30155;52.164;21.236;2022-12-20T01:12:27;101289.19;;;-1.68;80.86
44453;BME280;30155;52.164;21.236;2022-12-20T01:17:18;101283.81;;;-1.66;81.03
44453;BME280;30155;52.164;21.236;2022-12-20T01:22:09;101276.05;;;-1.67;81.02
44453;BME280;30155;52.164;21.236;2022-12-20T01:27:00;101269.52;;;-1.64;81.22
44453;BME280;30155;52.164;21.236;2022-12-20T01:31:51;101268.48;;;-1.61;81.28
44453;BME280;30155;52.164;21.236;2022-12-20T01:36:44;101259.80;;;-1.63;81.47
44453;BME280;30155;52.164;21.236;2022-12-20T01:41:36;101251.38;;;-1.62;81.68
44453;BME280;30155;52.164;21.236;2022-12-20T01:46:30;101242.42;;;-1.57;82.02
44453;BME280;30155;52.164;21.236;2022-12-20T01:51:24;101233.17;;;-1.49;82.25
44453;BME280;30155;52.164;21.236;2022-12-20T01:56:16;101224.48;;;-1.46;82.33
44453;BME280;30155;52.164;21.236;2022-12-20T02:01:07;101221.25;;;-1.44;82.48
44453;BME280;30155;52.164;21.236;2022-12-20T02:06:08;101216.50;;;-1.39;82.66
44453;BME280;30155;52.164;21.236;2022-12-20T02:15:58;101200.47;;;-1.20;83.29
44453;BME280;30155;52.164;21.236;2022-12-20T02:26:17;101170.61;;;-1.09;83.83
44453;BME280;30155;52.164;21.236;2022-12-20T02:31:18;101163.26;;;-1.04;83.68
44453;BME280;30155;52.164;21.236;2022-12-20T02:36:15;101155.31;;;-1.02;84.03
44453;BME280;30155;52.164;21.236;2022-12-20T02:46:18;101157.39;;;-0.85;84.29
44453;BME280;30155;52.164;21.236;2022-12-20T02:51:11;101153.32;;;-0.76;84.38
44453;BME280;30155;52.164;21.236;2022-12-20T02:56:11;101147.86;;;-0.69;84.86
44453;BME280;30155;52.164;21.236;2022-12-20T03:01:11;101147.67;;;-0.65;84.73
44453;BME280;30155;52.164;21.236;2022-12-20T03:06:04;101148.92;;;-0.53;84.99
44453;BME280;30155;52.164;21.236;2022-12-20T03:10:56;101152.76;;;-0.47;85.15
44453;BME280;30155;52.164;21.236;2022-12-20T03:15:47;101146.59;;;-0.44;85.24
44453;BME280;30155;52.164;21.236;2022-12-20T03:20:39;101133.95;;;-0.35;85.36
44453;BME280;30155;52.164;21.236;2022-12-20T03:25:30;101128.47;;;-0.28;85.55
44453;BME280;30155;52.164;21.236;2022-12-20T03:30:22;101119.23;;;-0.26;85.60
44453;BME280;30155;52.164;21.236;2022-12-20T03:35:14;101113.53;;;-0.22;85.65
44453;BME280;30155;52.164;21.236;2022-12-20T03:40:06;101111.11;;;-0.14;85.75
44453;BME280;30155;52.164;21.236;2022-12-20T03:44:58;101118.70;;;-0.09;85.78
44453;BME280;30155;52.164;21.236;2022-12-20T03:49:51;101135.78;;;-0.08;85.82
44453;BME280;30155;52.164;21.236;2022-12-20T03:54:43;101130.89;;;-0.05;85.87
44453;BME280;30155;52.164;21.236;2022-12-20T03:59:36;101111.63;;;0.01;85.91
44453;BME280;30155;52.164;21.236;2022-12-20T04:04:28;101089.09;;;0.02;85.95
44453;BME280;30155;52.164;21.236;2022-12-20T04:09:19;101120.68;;;0.02;86.04
44453;BME280;30155;52.164;21.236;2022-12-20T04:14:12;101118.41;;;0.07;86.02
44453;BME280;30155;52.164;21.236;2022-12-20T04:19:03;101133.66;;;0.12;86.08
44453;BME280;30155;52.164;21.236;2022-12-20T04:23:58;101135.63;;;0.16;86.16
44453;BME280;30155;52.164;21.236;2022-12-20T04:28:53;101113.81;;;0.14;86.32
44453;BME280;30155;52.164;21.236;2022-12-20T04:33:45;101112.81;;;0.19;86.95
44453;BME280;30155;52.164;21.236;2022-12-20T04:38:37;101100.03;;;0.19;86.30
44453;BME280;30155;52.164;21.236;2022-12-20T04:43:28;101076.54;;;0.18;86.37
44453;BME280;30155;52.164;21.236;2022-12-20T04:48:22;101074.16;;;0.21;86.37
44453;BME280;30155;52.164;21.236;2022-12-20T04:53:17;101075.06;;;0.22;86.40
44453;BME280;30155;52.164;21.236;2022-12-20T04:58:27;101081.27;;;0.25;86.43
44453;BME280;30155;52.164;21.236;2022-12-20T05:03:20;101106.73;;;0.24;86.40
44453;BME280;30155;52.164;21.236;2022-12-20T05:08:13;101088.73;;;0.22;86.44
44453;BME280;30155;52.164;21.236;2022-12-20T05:13:05;101089.20;;;0.23;86.58
44453;BME280;30155;52.164;21.236;2022-12-20T05:17:58;101088.13;;;0.26;86.63
44453;BME280;30155;52.164;21.236;2022-12-20T05:22:50;101092.07;;;0.28;86.74
44453;BME280;30155;52.164;21.236;2022-12-20T05:28:00;101090.09;;;0.30;86.73
44453;BME280;30155;52.164;21.236;2022-12-20T05:32:54;101072.19;;;0.30;86.63
44453;BME280;30155;52.164;21.236;2022-12-20T05:37:46;101070.34;;;0.34;86.74
44453;BME280;30155;52.164;21.236;2022-12-20T05:42:39;101071.31;;;0.36;86.82
44453;BME280;30155;52.164;21.236;2022-12-20T05:47:31;101060.98;;;0.35;86.74
44453;BME280;30155;52.164;21.236;2022-12-20T05:52:25;101060.67;;;0.37;86.73
44453;BME280;30155;52.164;21.236;2022-12-20T05:57:18;101058.42;;;0.42;86.75
44453;BME280;30155;52.164;21.236;2022-12-20T06:02:10;101062.73;;;0.43;86.72
44453;BME280;30155;52.164;21.236;2022-12-20T06:07:04;101061.76;;;0.41;86.79
44453;BME280;30155;52.164;21.236;2022-12-20T06:11:57;101061.45;;;0.43;86.77
44453;BME280;30155;52.164;21.236;2022-12-20T06:16:50;101065.49;;;0.46;86.81
44453;BME280;30155;52.164;21.236;2022-12-20T06:21:43;101069.64;;;0.50;86.76
44453;BME280;30155;52.164;21.236;2022-12-20T06:26:36;101074.83;;;0.52;86.96
44453;BME280;30155;52.164;21.236;2022-12-20T06:31:30;101072.56;;;0.50;86.77
44453;BME280;30155;52.164;21.236;2022-12-20T06:36:21;101061.45;;;0.49;86.74
44453;BME280;30155;52.164;21.236;2022-12-20T06:41:13;101069.91;;;0.55;86.90
44453;BME280;30155;52.164;21.236;2022-12-20T06:46:05;101069.80;;;0.60;86.98
44453;BME280;30155;52.164;21.236;2022-12-20T06:50:56;101073.64;;;0.60;86.84
44453;BME280;30155;52.164;21.236;2022-12-20T06:55:50;101077.48;;;0.60;86.78
44453;BME280;30155;52.164;21.236;2022-12-20T07:00:42;101070.78;;;0.62;86.65
44453;BME280;30155;52.164;21.236;2022-12-20T07:05:33;101072.94;;;0.69;86.77
44453;BME280;30155;52.164;21.236;2022-12-20T07:10:24;101074.82;;;0.72;86.75
44453;BME280;30155;52.164;21.236;2022-12-20T07:15:16;101072.83;;;0.74;86.60
44453;BME280;30155;52.164;21.236;2022-12-20T07:20:08;101081.02;;;0.75;86.47
44453;BME280;30155;52.164;21.236;2022-12-20T07:24:59;101081.58;;;0.85;86.43
44453;BME280;30155;52.164;21.236;2022-12-20T07:29:51;101075.75;;;0.87;86.18
44453;BME280;30155;52.164;21.236;2022-12-20T07:34:42;101077.33;;;0.92;86.19
44453;BME280;30155;52.164;21.236;2022-12-20T07:39:33;101077.78;;;1.00;86.16
44453;BME280;30155;52.164;21.236;2022-12-20T07:44:24;101077.27;;;1.05;86.01
44453;BME280;30155;52.164;21.236;2022-12-20T07:49:15;101072.84;;;1.09;86.11
44453;BME280;30155;52.164;21.236;2022-12-20T07:54:28;101071.56;;;1.09;86.05
44453;BME280;30155;52.164;21.236;2022-12-20T07:59:23;101076.69;;;1.09;85.86
44453;BME280;30155;52.164;21.236;2022-12-20T08:04:17;101078.83;;;1.17;85.91
44453;BME280;30155;52.164;21.236;2022-12-20T08:09:11;101072.78;;;1.23;85.86
44453;BME280;30155;52.164;21.236;2022-12-20T08:14:05;101068.32;;;1.27;85.69
44453;BME280;30155;52.164;21.236;2022-12-20T08:18:57;101069.39;;;1.30;85.60
44453;BME280;30155;52.164;21.236;2022-12-20T08:23:48;101063.37;;;1.37;85.51
44453;BME280;30155;52.164;21.236;2022-12-20T08:28:40;101071.69;;;1.47;85.44
44453;BME280;30155;52.164;21.236;2022-12-20T08:33:32;101066.54;;;1.54;85.54
44453;BME280;30155;52.164;21.236;2022-12-20T08:38:26;101067.30;;;1.60;85.38
44453;BME280;30155;52.164;21.236;2022-12-20T08:43:18;101061.54;;;1.64;85.13
44453;BME280;30155;52.164;21.236;2022-12-20T08:48:10;101049.69;;;1.66;84.81
44453;BME280;30155;52.164;21.236;2022-12-20T08:53:01;101056.10;;;1.66;84.94
44453;BME280;30155;52.164;21.236;2022-12-20T08:57:52;101046.66;;;1.65;84.83
44453;BME280;30155;52.164;21.236;2022-12-20T09:02:43;101040.13;;;1.70;84.79
44453;BME280;30155;52.164;21.236;2022-12-20T09:07:35;101046.43;;;1.83;84.58
44453;BME280;30155;52.164;21.236;2022-12-20T09:12:26;101050.66;;;1.98;84.38
44453;BME280;30155;52.164;21.236;2022-12-20T09:17:17;101054.72;;;2.09;84.14
44453;BME280;30155;52.164;21.236;2022-12-20T09:22:08;101059.75;;;2.22;83.86
44453;BME280;30155;52.164;21.236;2022-12-20T09:26:59;101055.62;;;2.33;83.71
44453;BME280;30155;52.164;21.236;2022-12-20T09:31:50;101058.06;;;2.46;83.75
44453;BME280;30155;52.164;21.236;2022-12-20T09:36:41;101057.30;;;2.63;83.50
44453;BME280;30155;52.164;21.236;2022-12-20T09:41:38;101046.91;;;2.85;83.23
44453;BME280;30155;52.164;21.236;2022-12-20T09:46:32;101048.34;;;3.13;82.48
44453;BME280;30155;52.164;21.236;2022-12-20T09:56:53;101031.05;;;3.51;81.54
44453;BME280;30155;52.164;21.236;2022-12-20T10:01:50;101025.75;;;3.48;81.77
44453;BME280;30155;52.164;21.236;2022-12-20T10:28:17;101024.83;;;3.64;81.21
44453;BME280;30155;52.164;21.236;2022-12-20T10:33:21;101032.38;;;3.69;80.76
44453;BME280;30155;52.164;21.236;2022-12-20T10:38:14;101026.39;;;3.78;80.59
44453;BME280;30155;52.164;21.236;2022-12-20T10:43:18;101028.95;;;3.87;80.04
44453;BME280;30155;52.164;21.236;2022-12-20T10:48:34;101029.83;;;3.87;80.56
44453;BME280;30155;52.164;21.236;2022-12-20T10:53:27;101018.22;;;3.77;80.61
44453;BME280;30155;52.164;21.236;2022-12-20T10:58:34;101013.92;;;3.60;80.80
44453;BME280;30155;52.164;21.236;2022-12-20T11:03:26;101001.86;;;3.59;81.01
44453;BME280;30155;52.164;21.236;2022-12-20T11:08:20;100990.39;;;3.78;80.65
44453;BME280;30155;52.164;21.236;2022-12-20T11:13:23;100985.47;;;4.19;80.69
44453;BME280;30155;52.164;21.236;2022-12-20T11:18:30;100983.05;;;4.22;79.75
44453;BME280;30155;52.164;21.236;2022-12-20T11:34:45;100936.45;;;4.26;79.76
44453;BME280;30155;52.164;21.236;2022-12-20T11:45:03;100944.78;;;3.66;80.06
44453;BME280;30155;52.164;21.236;2022-12-20T11:50:08;100933.34;;;3.33;80.55
44453;BME280;30155;52.164;21.236;2022-12-20T11:55:27;100944.08;;;3.34;80.84
44453;BME280;30155;52.164;21.236;2022-12-20T12:00:18;100934.63;;;3.33;81.10
44453;BME280;30155;52.164;21.236;2022-12-20T12:05:22;100934.70;;;3.35;80.99
44453;BME280;30155;52.164;21.236;2022-12-20T12:10:19;100925.95;;;3.31;80.70
44453;BME280;30155;52.164;21.236;2022-12-20T12:25:39;100922.26;;;4.06;79.98
44453;BME280;30155;52.164;21.236;2022-12-20T12:30:36;100912.48;;;4.36;79.91
44453;BME280;30155;52.164;21.236;2022-12-20T12:35:46;100919.33;;;4.55;79.69
44453;BME280;30155;52.164;21.236;2022-12-20T12:46:01;100921.16;;;4.48;79.19
44453;BME280;30155;52.164;21.236;2022-12-20T12:50:51;100923.52;;;4.34;79.12
44453;BME280;30155;52.164;21.236;2022-12-20T12:55:50;100928.81;;;4.09;79.15
44453;BME280;30155;52.164;21.236;2022-12-20T13:00:51;100922.48;;;3.93;79.24
44453;BME280;30155;52.164;21.236;2022-12-20T13:05:43;100928.33;;;3.80;79.82
44453;BME280;30155;52.164;21.236;2022-12-20T13:20:34;100929.66;;;3.20;80.37
44453;BME280;30155;52.164;21.236;2022-12-20T13:25:27;100945.94;;;3.02;80.78
44453;BME280;30155;52.164;21.236;2022-12-20T13:30:24;100940.16;;;2.90;81.08
44453;BME280;30155;52.164;21.236;2022-12-20T13:35:28;100946.66;;;2.83;81.29
44453;BME280;30155;52.164;21.236;2022-12-20T13:40:31;100943.04;;;2.72;81.47
44453;BME280;30155;52.164;21.236;2022-12-20T13:45:37;100964.71;;;2.60;81.61
44453;BME280;30155;52.164;21.236;2022-12-20T13:50:32;100955.47;;;2.56;81.75
44453;BME280;30155;52.164;21.236;2022-12-20T13:55:33;100964.69;;;2.52;81.91
44453;BME280;30155;52.164;21.236;2022-12-20T14:00:28;100967.59;;;2.42;82.10
44453;BME280;30155;52.164;21.236;2022-12-20T14:05:22;100962.75;;;2.32;82.10
44453;BME280;30155;52.164;21.236;2022-12-20T14:10:26;100965.47;;;2.18;82.21
44453;BME280;30155;52.164;21.236;2022-12-20T14:15:21;100954.85;;;2.12;82.33
44453;BME280;30155;52.164;21.236;2022-12-20T14:20:28;100943.54;;;2.08;82.64
44453;BME280;30155;52.164;21.236;2022-12-20T14:25:34;100929.98;;;2.03;82.83
44453;BME280;30155;52.164;21.236;2022-12-20T14:30:40;100913.69;;;1.94;83.01
44453;BME280;30155;52.164;21.236;2022-12-20T14:35:32;100907.66;;;1.85;83.00
44453;BME280;30155;52.164;21.236;2022-12-20T14:40:23;100915.67;;;1.83;83.12
44453;BME280;30155;52.164;21.236;2022-12-20T14:45:26;100932.83;;;1.84;83.25
44453;BME280;30155;52.164;21.236;2022-12-20T14:50:21;100917.73;;;1.82;83.34
44453;BME280;30155;52.164;21.236;2022-12-20T14:55:31;100929.59;;;1.80;83.29
44453;BME280;30155;52.164;21.236;2022-12-20T15:00:27;100932.29;;;1.75;83.35
44453;BME280;30155;52.164;21.236;2022-12-20T15:05:36;100920.61;;;1.72;83.45
44453;BME280;30155;52.164;21.236;2022-12-20T15:10:33;100929.44;;;1.77;83.61
44453;BME280;30155;52.164;21.236;2022-12-20T15:15:25;100912.05;;;1.80;83.61
44453;BME280;30155;52.164;21.236;2022-12-20T15:20:16;100901.94;;;1.75;83.73
44453;BME280;30155;52.164;21.236;2022-12-20T15:25:15;100899.92;;;1.69;83.72
44453;BME280;30155;52.164;21.236;2022-12-20T15:30:12;100888.20;;;1.66;83.64
44453;BME280;30155;52.164;21.236;2022-12-20T15:35:04;100885.17;;;1.65;83.82
44453;BME280;30155;52.164;21.236;2022-12-20T15:39:56;100889.48;;;1.66;83.78
44453;BME280;30155;52.164;21.236;2022-12-20T15:44:47;100889.98;;;1.67;83.89
44453;BME280;30155;52.164;21.236;2022-12-20T15:49:38;100884.68;;;1.64;83.80
44453;BME280;30155;52.164;21.236;2022-12-20T15:54:32;100880.10;;;1.58;83.84
44453;BME280;30155;52.164;21.236;2022-12-20T15:59:25;100886.91;;;1.58;83.87
44453;BME280;30155;52.164;21.236;2022-12-20T16:04:20;100887.06;;;1.61;83.97
44453;BME280;30155;52.164;21.236;2022-12-20T16:09:12;100869.30;;;1.64;84.02
44453;BME280;30155;52.164;21.236;2022-12-20T16:14:03;100868.02;;;1.64;83.91
44453;BME280;30155;52.164;21.236;2022-12-20T16:18:54;100880.38;;;1.63;83.79
44453;BME280;30155;52.164;21.236;2022-12-20T16:23:46;100883.40;;;1.64;83.82
44453;BME280;30155;52.164;21.236;2022-12-20T16:28:37;100876.35;;;1.68;83.94
44453;BME280;30155;52.164;21.236;2022-12-20T16:33:28;100872.45;;;1.75;83.87
44453;BME280;30155;52.164;21.236;2022-12-20T16:38:19;100873.04;;;1.77;83.88
44453;BME280;30155;52.164;21.236;2022-12-20T16:43:12;100877.17;;;1.75;83.86
44453;BME280;30155;52.164;21.236;2022-12-20T16:48:05;100874.93;;;1.73;83.76
44453;BME280;30155;52.164;21.236;2022-12-20T16:52:57;100876.71;;;1.74;83.75
44453;BME280;30155;52.164;21.236;2022-12-20T16:57:48;100880.41;;;1.79;83.95
44453;BME280;30155;52.164;21.236;2022-12-20T17:02:40;100881.05;;;1.83;83.86
44453;BME280;30155;52.164;21.236;2022-12-20T17:07:31;100875.28;;;1.87;83.77
44453;BME280;30155;52.164;21.236;2022-12-20T17:12:22;100856.38;;;1.85;83.70
44453;BME280;30155;52.164;21.236;2022-12-20T17:17:13;100862.55;;;1.81;83.62
44453;BME280;30155;52.164;21.236;2022-12-20T17:22:05;100870.63;;;1.80;83.69
44453;BME280;30155;52.164;21.236;2022-12-20T17:26:56;100856.88;;;1.86;83.73
44453;BME280;30155;52.164;21.236;2022-12-20T17:31:48;100858.30;;;1.89;83.78
44453;BME280;30155;52.164;21.236;2022-12-20T17:36:39;100864.70;;;1.89;83.85
44453;BME280;30155;52.164;21.236;2022-12-20T17:41:32;100849.18;;;1.86;83.78
44453;BME280;30155;52.164;21.236;2022-12-20T17:46:24;100834.35;;;1.81;83.83
44453;BME280;30155;52.164;21.236;2022-12-20T17:51:21;100792.75;;;1.78;83.84
44453;BME280;30155;52.164;21.236;2022-12-20T17:56:18;100824.97;;;1.81;83.84
44453;BME280;30155;52.164;21.236;2022-12-20T18:01:19;100830.56;;;1.82;83.92
44453;BME280;30155;52.164;21.236;2022-12-20T18:06:13;100838.75;;;1.83;83.99
44453;BME280;30155;52.164;21.236;2022-12-20T18:11:04;100844.75;;;1.84;84.10
44453;BME280;30155;52.164;21.236;2022-12-20T18:15:55;100831.70;;;1.87;83.99
44453;BME280;30155;52.164;21.236;2022-12-20T18:20:46;100818.27;;;1.92;84.05
44453;BME280;30155;52.164;21.236;2022-12-20T18:25:37;100823.06;;;1.94;84.10
44453;BME280;30155;52.164;21.236;2022-12-20T18:30:28;100830.41;;;1.87;83.95
44453;BME280;30155;52.164;21.236;2022-12-20T18:35:19;100828.44;;;1.90;84.00
44453;BME280;30155;52.164;21.236;2022-12-20T18:40:11;100809.84;;;1.94;84.01
44453;BME280;30155;52.164;21.236;2022-12-20T18:45:02;100802.47;;;1.92;83.93
44453;BME280;30155;52.164;21.236;2022-12-20T18:49:54;100820.66;;;1.88;84.02
44453;BME280;30155;52.164;21.236;2022-12-20T18:54:45;100828.34;;;1.88;84.05
44453;BME280;30155;52.164;21.236;2022-12-20T18:59:38;100803.66;;;1.90;84.04
44453;BME280;30155;52.164;21.236;2022-12-20T19:04:29;100791.34;;;1.92;84.11
44453;BME280;30155;52.164;21.236;2022-12-20T19:09:20;100789.56;;;1.90;84.26
44453;BME280;30155;52.164;21.236;2022-12-20T19:14:12;100798.20;;;1.93;84.14
44453;BME280;30155;52.164;21.236;2022-12-20T19:19:04;100821.14;;;1.98;84.10
44453;BME280;30155;52.164;21.236;2022-12-20T19:23:58;100802.45;;;2.00;84.09
44453;BME280;30155;52.164;21.236;2022-12-20T19:28:50;100815.03;;;2.04;84.16
44453;BME280;30155;52.164;21.236;2022-12-20T19:33:43;100800.38;;;2.01;83.93
44453;BME280;30155;52.164;21.236;2022-12-20T19:38:40;100812.34;;;2.01;84.02
44453;BME280;30155;52.164;21.236;2022-12-20T19:43:33;100827.81;;;2.02;83.84
44453;BME280;30155;52.164;21.236;2022-12-20T19:48:24;100817.59;;;2.04;83.90
44453;BME280;30155;52.164;21.236;2022-12-20T19:53:15;100812.18;;;2.06;84.01
44453;BME280;30155;52.164;21.236;2022-12-20T19:58:07;100807.03;;;1.98;84.00
44453;BME280;30155;52.164;21.236;2022-12-20T20:02:58;100792.30;;;1.94;84.06
44453;BME280;30155;52.164;21.236;2022-12-20T20:07:49;100776.58;;;1.96;84.26
44453;BME280;30155;52.164;21.236;2022-12-20T20:12:40;100793.25;;;1.96;84.18
44453;BME280;30155;52.164;21.236;2022-12-20T20:17:31;100790.19;;;1.95;84.11
44453;BME280;30155;52.164;21.236;2022-12-20T20:22:22;100782.73;;;1.91;84.23
44453;BME280;30155;52.164;21.236;2022-12-20T20:27:14;100780.43;;;1.96;84.05
44453;BME280;30155;52.164;21.236;2022-12-20T20:32:05;100776.58;;;1.96;83.97
44453;BME280;30155;52.164;21.236;2022-12-20T20:36:57;100776.67;;;1.97;84.03
44453;BME280;30155;52.164;21.236;2022-12-20T20:41:48;100725.15;;;1.84;83.85
44453;BME280;30155;52.164;21.236;2022-12-20T20:46:39;100725.15;;;1.84;83.85
44453;BME280;30155;52.164;21.236;2022-12-20T20:51:30;100730.58;;;1.90;83.82
44453;BME280;30155;52.164;21.236;2022-12-20T20:56:21;100737.54;;;1.93;83.96
44453;BME280;30155;52.164;21.236;2022-12-20T21:01:16;100735.87;;;1.94;83.89
44453;BME280;30155;52.164;21.236;2022-12-20T21:06:08;100745.97;;;1.90;83.75
44453;BME280;30155;52.164;21.236;2022-12-20T21:11:04;100740.21;;;1.86;83.80
44453;BME280;30155;52.164;21.236;2022-12-20T21:16:08;100743.73;;;1.88;83.82
44453;BME280;30155;52.164;21.236;2022-12-20T21:21:09;100744.69;;;1.90;84.03
44453;BME280;30155;52.164;21.236;2022-12-20T21:26:02;100735.71;;;1.90;84.05
44453;BME280;30155;52.164;21.236;2022-12-20T21:31:02;100732.19;;;1.88;83.91
44453;BME280;30155;52.164;21.236;2022-12-20T21:36:00;100723.39;;;1.92;83.79
44453;BME280;30155;52.164;21.236;2022-12-20T21:40:57;100738.45;;;1.94;83.89
44453;BME280;30155;52.164;21.236;2022-12-20T21:45:56;100732.03;;;1.94;83.83
44453;BME280;30155;52.164;21.236;2022-12-20T21:51:05;100715.19;;;1.82;83.94
44453;BME280;30155;52.164;21.236;2022-12-20T21:55:59;100717.99;;;1.79;83.79
44453;BME280;30155;52.164;21.236;2022-12-20T22:00:52;100722.42;;;1.81;83.83
44453;BME280;30155;52.164;21.236;2022-12-20T22:05:45;100728.50;;;1.83;84.01
44453;BME280;30155;52.164;21.236;2022-12-20T22:10:38;100711.53;;;1.77;84.06
44453;BME280;30155;52.164;21.236;2022-12-20T22:15:30;100717.27;;;1.73;84.20
44453;BME280;30155;52.164;21.236;2022-12-20T22:20:21;100712.64;;;1.74;84.22
44453;BME280;30155;52.164;21.236;2022-12-20T22:25:12;100702.56;;;1.77;84.22
44453;BME280;30155;52.164;21.236;2022-12-20T22:30:05;100695.66;;;1.76;84.24
44453;BME280;30155;52.164;21.236;2022-12-20T22:34:56;100682.20;;;1.72;84.31
44453;BME280;30155;52.164;21.236;2022-12-20T22:39:48;100695.19;;;1.67;84.15
44453;BME280;30155;52.164;21.236;2022-12-20T22:44:38;100697.66;;;1.65;84.23
44453;BME280;30155;52.164;21.236;2022-12-20T22:49:29;100690.70;;;1.63;84.35
44453;BME280;30155;52.164;21.236;2022-12-20T22:54:21;100682.03;;;1.61;84.37
44453;BME280;30155;52.164;21.236;2022-12-20T22:59:12;100668.17;;;1.57;84.51
44453;BME280;30155;52.164;21.236;2022-12-20T23:04:03;100681.72;;;1.55;84.55
44453;BME280;30155;52.164;21.236;2022-12-20T23:08:57;100665.15;;;1.56;84.46
44453;BME280;30155;52.164;21.236;2022-12-20T23:13:48;100672.27;;;1.62;84.52
44453;BME280;30155;52.164;21.236;2022-12-20T23:19:00;100666.03;;;1.65;84.57
44453;BME280;30155;52.164;21.236;2022-12-20T23:23:51;100657.84;;;1.64;84.39
44453;BME280;30155;52.164;21.236;2022-12-20T23:28:44;100649.94;;;1.59;84.49
44453;BME280;30155;52.164;21.236;2022-12-20T23:33:36;100633.50;;;1.64;84.69
44453;BME280;30155;52.164;21.236;2022-12-20T23:38:32;100633.50;;;1.64;84.69
44453;BME280;30155;52.164;21.236;2022-12-20T23:43:30;100635.27;;;1.65;84.66
44453;BME280;30155;52.164;21.236;2022-12-20T23:48:22;100625.64;;;1.61;84.62
44453;BME280;30155;52.164;21.236;2022-12-20T23:53:13;100620.52;;;1.61;84.65
44453;BME280;30155;52.164;21.236;2022-12-20T23:58:04;100615.89;;;1.62;84.61
